Time;durP1;ratioP1;P1;durP2;ratioP2;P2;SDS_P1;SDS_P2;PMS_P1;PMS_P2;Temp;Humidity;BMP_temperature;BMP_pressure;BME280_temperature;BME280_humidity;BME280_pressure;Samples;Min_cycle;Max_cycle;Signal;HPM_P1;HPM_P2
2021/05/23 00:01:05;;;;;;;6.15;0.95;;;12.10;99.90;;;;;;5053129;28;20021;-79
2021/05/23 00:03:31;;;;;;;2.47;1.13;;;12.20;99.90;;;;;;5053126;28;20048;-79
2021/05/23 00:05:57;;;;;;;1.98;0.80;;;12.20;99.90;;;;;;5053119;28;20052;-79
2021/05/23 00:08:24;;;;;;;1.80;0.75;;;12.00;99.90;;;;;;5035180;28;20481;-79
2021/05/23 00:11:05;;;;;;;2.78;1.20;;;12.00;99.90;;;;;;5035155;28;20485;-79
2021/05/23 00:13:40;;;;;;;1.83;0.57;;;12.00;99.90;;;;;;5053003;28;20033;-79
2021/05/23 00:16:12;;;;;;;2.05;0.85;;;12.00;99.90;;;;;;5035141;28;20021;-80
2021/05/23 00:18:41;;;;;;;3.05;1.02;;;12.00;99.90;;;;;;5035179;28;20377;-79
2021/05/23 00:21:08;;;;;;;2.60;0.80;;;12.10;99.90;;;;;;5035071;28;20361;-80
2021/05/23 00:23:35;;;;;;;3.08;0.80;;;12.10;99.90;;;;;;5053178;28;20028;-79
2021/05/23 00:26:00;;;;;;;2.92;0.85;;;12.00;99.90;;;;;;5035085;28;20037;-79
2021/05/23 00:28:27;;;;;;;2.92;0.85;;;11.90;99.90;;;;;;5052893;28;20365;-79
2021/05/23 00:30:52;;;;;;;2.40;1.02;;;11.90;99.90;;;;;;5035181;28;20079;-79
2021/05/23 00:33:18;;;;;;;4.63;0.80;;;11.90;99.90;;;;;;5034899;28;20435;-79
2021/05/23 00:35:44;;;;;;;0.98;0.68;;;11.80;99.90;;;;;;5035173;28;20075;-79
2021/05/23 00:38:10;;;;;;;3.53;0.73;;;11.80;99.90;;;;;;5034891;28;20021;-79
2021/05/23 00:40:38;;;;;;;3.55;0.80;;;11.90;99.90;;;;;;5052766;28;20464;-79
2021/05/23 00:43:22;;;;;;;1.92;0.80;;;12.00;99.90;;;;;;5034811;28;20029;-79
2021/05/23 00:45:50;;;;;;;1.15;0.60;;;11.90;99.90;;;;;;5034866;28;20029;-79
2021/05/23 00:48:17;;;;;;;1.70;0.75;;;12.00;99.90;;;;;;5034848;28;20025;-79
2021/05/23 00:50:43;;;;;;;2.45;0.70;;;11.90;99.90;;;;;;5052631;28;20048;-79
2021/05/23 00:53:10;;;;;;;2.17;0.68;;;11.70;99.90;;;;;;5036922;28;20032;-79
2021/05/23 00:55:37;;;;;;;2.00;0.93;;;11.60;99.90;;;;;;5038426;28;20108;-79
2021/05/23 00:58:03;;;;;;;1.60;0.77;;;11.60;99.90;;;;;;5056304;28;20021;-79
2021/05/23 01:00:41;;;;;;;1.98;0.90;;;11.70;99.90;;;;;;5056235;28;20098;-79
2021/05/23 01:03:28;;;;;;;3.45;0.82;;;11.80;99.90;;;;;;5056256;28;20028;-79
2021/05/23 01:05:56;;;;;;;2.38;0.85;;;11.80;99.90;;;;;;5056183;28;20025;-79
2021/05/23 01:08:23;;;;;;;1.60;0.80;;;11.90;99.90;;;;;;5038219;28;20392;-80
2021/05/23 01:11:16;;;;;;;1.63;0.80;;;12.00;99.90;;;;;;5056024;28;20472;-79
2021/05/23 01:13:56;;;;;;;2.25;0.77;;;11.90;99.90;;;;;;5038039;28;20059;-79
2021/05/23 01:16:33;;;;;;;3.28;1.05;;;11.70;99.90;;;;;;5038051;28;20025;-79
2021/05/23 01:19:22;;;;;;;2.70;0.70;;;11.70;99.90;;;;;;5055942;28;20489;-79
2021/05/23 01:21:54;;;;;;;2.60;0.70;;;11.50;99.90;;;;;;5056164;28;20025;-79
2021/05/23 01:24:30;;;;;;;2.20;0.80;;;11.50;99.90;;;;;;5055760;28;20475;-80
2021/05/23 01:26:57;;;;;;;1.92;0.90;;;11.60;99.90;;;;;;5055809;28;20028;-79
2021/05/23 01:29:22;;;;;;;4.28;0.90;;;11.70;99.90;;;;;;5037749;28;20029;-79
2021/05/23 01:31:50;;;;;;;2.33;0.70;;;11.70;99.90;;;;;;5055656;28;20031;-79
2021/05/23 01:34:20;;;;;;;2.20;0.70;;;11.70;99.90;;;;;;5037686;28;20067;-79
2021/05/23 01:36:47;;;;;;;3.08;0.80;;;11.80;99.90;;;;;;5037710;28;20112;-79
2021/05/23 01:39:14;;;;;;;2.72;0.70;;;11.70;99.90;;;;;;5037638;28;20437;-79
2021/05/23 01:41:42;;;;;;;2.75;0.80;;;11.60;99.90;;;;;;5037611;28;20430;-79
2021/05/23 01:44:08;;;;;;;1.38;0.65;;;11.50;99.90;;;;;;5055718;28;20029;-79
2021/05/23 01:46:34;;;;;;;2.13;0.85;;;11.50;99.90;;;;;;5055341;28;20024;-79
2021/05/23 01:49:00;;;;;;;2.30;1.00;;;11.60;99.90;;;;;;5037783;28;20031;-79
2021/05/23 01:51:26;;;;;;;6.28;1.05;;;11.70;99.90;;;;;;5021135;28;20136;-79
2021/05/23 01:53:52;;;;;;;1.88;0.80;;;11.80;99.90;;;;;;5015770;28;20030;-79
2021/05/23 01:56:18;;;;;;;3.08;1.00;;;11.70;99.90;;;;;;5014214;28;20083;-79
2021/05/23 01:58:44;;;;;;;3.13;0.90;;;11.90;99.90;;;;;;5014221;28;20030;-79
2021/05/23 02:01:10;;;;;;;1.23;0.63;;;11.80;99.90;;;;;;5014167;28;20037;-79
2021/05/23 02:03:36;;;;;;;2.35;0.70;;;11.70;99.90;;;;;;5015181;28;20030;-79
2021/05/23 02:06:04;;;;;;;3.85;0.80;;;11.80;99.90;;;;;;5015211;28;20425;-80
2021/05/23 02:08:32;;;;;;;2.60;0.90;;;11.70;99.90;;;;;;5014031;28;20025;-82
2021/05/23 02:11:01;;;;;;;5.22;1.02;;;11.60;99.90;;;;;;5013949;28;20080;-83
2021/05/23 02:13:27;;;;;;;3.80;0.80;;;11.10;99.90;;;;;;5013867;28;20033;-82
2021/05/23 02:15:54;;;;;;;3.72;0.70;;;10.90;99.90;;;;;;5013878;28;20022;-82
2021/05/23 02:18:19;;;;;;;1.27;0.57;;;10.60;99.90;;;;;;5013805;28;20060;-83
2021/05/23 02:20:45;;;;;;;2.03;0.50;;;10.50;99.90;;;;;;5015345;28;20018;-82
2021/05/23 02:23:17;;;;;;;4.47;0.77;;;10.50;99.90;;;;;;5013720;28;20114;-82
2021/05/23 02:25:43;;;;;;;1.42;0.70;;;10.50;99.90;;;;;;5013915;28;20454;-82
2021/05/23 02:28:10;;;;;;;1.42;0.50;;;10.60;99.90;;;;;;5014906;28;20409;-82
2021/05/23 02:30:42;;;;;;;3.05;0.70;;;10.70;99.90;;;;;;5013554;28;20482;-82
2021/05/23 02:33:09;;;;;;;0.45;0.40;;;10.70;99.90;;;;;;5014696;28;20032;-82
2021/05/23 02:35:38;;;;;;;1.75;0.73;;;10.70;99.90;;;;;;5013516;28;20374;-81
2021/05/23 02:38:05;;;;;;;1.33;0.63;;;10.60;99.90;;;;;;5013455;28;20508;-81
2021/05/23 02:40:32;;;;;;;1.98;0.75;;;10.70;99.90;;;;;;5014919;28;20017;-81
2021/05/23 02:43:00;;;;;;;1.45;0.60;;;10.60;99.90;;;;;;5013325;28;20085;-81
2021/05/23 02:45:26;;;;;;;1.42;0.50;;;10.60;99.90;;;;;;5014562;28;20029;-81
2021/05/23 02:47:53;;;;;;;0.73;0.30;;;10.50;99.90;;;;;;5013209;28;20030;-81
2021/05/23 02:50:28;;;;;;;0.63;0.47;;;10.70;99.90;;;;;;5013029;28;20041;-81
2021/05/23 02:52:54;;;;;;;1.85;0.50;;;10.60;99.90;;;;;;5013374;28;20103;-81
2021/05/23 02:55:21;;;;;;;0.93;0.40;;;10.60;99.90;;;;;;5013131;28;20478;-81
2021/05/23 02:57:47;;;;;;;1.30;0.50;;;10.70;99.90;;;;;;5014401;28;20101;-81
2021/05/23 03:00:16;;;;;;;2.42;0.30;;;10.70;99.90;;;;;;5013038;28;20057;-82
2021/05/23 03:02:43;;;;;;;2.00;0.40;;;10.50;99.90;;;;;;5012992;28;20032;-82
2021/05/23 03:05:11;;;;;;;1.80;0.65;;;10.50;99.90;;;;;;5012953;28;20037;-82
2021/05/23 03:07:45;;;;;;;1.10;0.40;;;10.50;99.90;;;;;;5012891;28;20030;-82
2021/05/23 03:10:14;;;;;;;2.80;0.40;;;10.50;99.90;;;;;;5012984;28;20030;-81
2021/05/23 03:12:40;;;;;;;2.38;0.73;;;10.60;99.90;;;;;;5012859;28;20033;-81
2021/05/23 03:15:09;;;;;;;2.35;0.40;;;10.70;99.90;;;;;;5012461;28;20029;-81
2021/05/23 03:17:34;;;;;;;2.47;0.50;;;10.70;99.90;;;;;;5013502;28;20022;-81
2021/05/23 03:20:00;;;;;;;0.70;0.25;;;10.80;99.90;;;;;;5014022;28;20124;-82
2021/05/23 03:22:26;;;;;;;2.78;0.40;;;10.60;99.90;;;;;;5012670;28;20029;-81
2021/05/23 03:24:51;;;;;;;2.15;0.45;;;10.70;99.90;;;;;;5012707;28;20029;-82
2021/05/23 03:27:17;;;;;;;0.70;0.40;;;10.80;99.90;;;;;;5014159;28;20033;-82
2021/05/23 03:29:43;;;;;;;0.65;0.20;;;10.60;99.90;;;;;;5013887;28;20025;-82
2021/05/23 03:32:09;;;;;;;1.35;0.45;;;10.60;99.90;;;;;;5012544;28;20025;-81
2021/05/23 03:34:34;;;;;;;0.90;0.28;;;10.70;99.90;;;;;;5014253;28;20030;-82
2021/05/23 03:37:00;;;;;;;3.00;0.40;;;10.80;99.90;;;;;;5012466;28;20442;-82
2021/05/23 03:39:26;;;;;;;1.17;0.30;;;10.80;99.90;;;;;;5012409;28;20022;-82
2021/05/23 03:41:51;;;;;;;1.65;0.47;;;10.60;99.90;;;;;;5013633;28;20048;-82
2021/05/23 03:44:17;;;;;;;1.75;0.40;;;10.70;99.90;;;;;;5013160;28;20026;-82
2021/05/23 03:46:43;;;;;;;0.75;0.20;;;10.60;99.90;;;;;;5012293;28;20030;-82
2021/05/23 03:49:08;;;;;;;2.13;0.45;;;10.40;99.90;;;;;;5013641;28;20037;-82
2021/05/23 03:51:34;;;;;;;2.05;0.47;;;10.30;99.90;;;;;;5041196;28;20155;-82
2021/05/23 03:54:00;;;;;;;1.77;0.40;;;10.30;99.90;;;;;;5035195;28;20051;-82
2021/05/23 03:56:26;;;;;;;1.40;0.30;;;10.30;99.90;;;;;;5053194;28;20024;-82
2021/05/23 03:58:52;;;;;;;1.88;0.30;;;;;;;;;;5035346;28;20104;-82
2021/05/23 04:01:18;;;;;;;0.70;0.40;;;10.10;99.90;;;;;;5035230;28;20056;-81
2021/05/23 04:03:43;;;;;;;0.52;0.35;;;10.10;99.90;;;;;;5053099;28;20595;-81
2021/05/23 04:06:09;;;;;;;1.38;0.50;;;10.10;99.90;;;;;;5053095;28;20131;-80
2021/05/23 04:08:35;;;;;;;0.82;0.50;;;10.30;99.90;;;;;;5035168;28;20021;-81
2021/05/23 04:11:16;;;;;;;1.10;0.40;;;10.20;99.90;;;;;;5053051;28;20489;-81
2021/05/23 04:13:44;;;;;;;1.27;0.57;;;10.40;99.90;;;;;;5035062;28;20051;-81
2021/05/23 04:16:09;;;;;;;1.83;0.52;;;10.60;99.90;;;;;;5053220;28;20017;-81
2021/05/23 04:18:35;;;;;;;1.85;0.50;;;10.70;99.90;;;;;;5053276;28;20101;-81
2021/05/23 04:21:01;;;;;;;1.10;0.40;;;10.50;99.90;;;;;;5035059;28;20017;-81
2021/05/23 04:23:27;;;;;;;0.70;0.40;;;10.60;99.90;;;;;;5034972;28;20029;-81
2021/05/23 04:25:52;;;;;;;1.02;0.55;;;10.60;99.90;;;;;;5035097;28;20032;-81
2021/05/23 04:28:18;;;;;;;1.70;0.55;;;10.60;99.90;;;;;;5037638;28;20029;-81
2021/05/23 04:30:44;;;;;;;2.13;0.60;;;10.60;99.90;;;;;;5038989;28;20029;-81
2021/05/23 04:33:10;;;;;;;2.30;0.57;;;10.50;99.90;;;;;;5039415;28;20090;-81
2021/05/23 04:35:36;;;;;;;2.95;0.52;;;10.60;99.90;;;;;;5056716;28;20092;-81
2021/05/23 04:38:04;;;;;;;0.55;0.43;;;10.50;99.90;;;;;;5056648;28;20444;-81
2021/05/23 04:40:30;;;;;;;1.48;0.52;;;10.60;99.90;;;;;;5038717;28;20028;-81
2021/05/23 04:42:56;;;;;;;1.13;0.60;;;10.60;99.90;;;;;;5038758;28;20503;-81
2021/05/23 04:45:22;;;;;;;1.05;0.47;;;10.60;99.90;;;;;;5038947;28;20068;-81
2021/05/23 04:47:48;;;;;;;3.60;0.47;;;10.40;99.90;;;;;;5038585;28;20217;-81
2021/05/23 04:50:15;;;;;;;2.35;0.40;;;10.40;99.90;;;;;;5056234;28;20053;-81
2021/05/23 04:52:41;;;;;;;1.73;0.50;;;10.50;99.90;;;;;;5039027;28;20048;-81
2021/05/23 04:55:07;;;;;;;1.83;0.60;;;10.50;99.90;;;;;;5038430;28;20116;-81
2021/05/23 04:57:34;;;;;;;1.67;0.80;;;10.70;99.90;;;;;;5038477;28;20480;-81
2021/05/23 04:59:59;;;;;;;1.52;0.35;;;10.80;99.90;;;;;;5056549;28;20025;-81
2021/05/23 05:02:25;;;;;;;1.65;0.20;;;10.70;99.90;;;;;;5056765;28;20033;-80
2021/05/23 05:04:51;;;;;;;1.13;0.43;;;10.70;99.90;;;;;;5056190;28;20021;-81
2021/05/23 05:07:17;;;;;;;1.35;0.57;;;10.70;99.90;;;;;;5038283;28;20055;-81
2021/05/23 05:09:43;;;;;;;1.90;0.50;;;10.80;99.90;;;;;;5056127;28;20028;-81
2021/05/23 05:12:09;;;;;;;4.07;0.80;;;10.90;99.90;;;;;;5038256;28;20025;-81
2021/05/23 05:14:35;;;;;;;3.78;0.60;;;10.80;99.90;;;;;;5056019;28;20472;-81
2021/05/23 05:17:01;;;;;;;1.80;0.40;;;10.90;99.90;;;;;;5038098;28;20021;-81
2021/05/23 05:19:27;;;;;;;1.60;0.50;;;10.80;99.90;;;;;;5056207;28;20027;-81
2021/05/23 05:21:53;;;;;;;1.52;0.60;;;11.00;99.90;;;;;;5056166;28;20415;-81
2021/05/23 05:24:19;;;;;;;1.40;0.60;;;10.90;99.90;;;;;;5037965;28;20040;-81
2021/05/23 05:26:45;;;;;;;1.80;0.60;;;11.00;99.90;;;;;;5037946;28;20108;-81
2021/05/23 05:29:11;;;;;;;1.95;0.40;;;11.10;99.90;;;;;;5037858;28;20025;-81
2021/05/23 05:31:36;;;;;;;2.08;0.60;;;11.20;99.90;;;;;;5037346;28;20035;-81
2021/05/23 05:34:02;;;;;;;1.45;0.50;;;10.90;99.90;;;;;;5055823;28;20376;-81
2021/05/23 05:36:28;;;;;;;1.42;0.70;;;11.00;99.90;;;;;;5037708;28;20104;-81
2021/05/23 05:38:54;;;;;;;1.58;0.45;;;11.10;99.90;;;;;;5036689;28;20021;-81
2021/05/23 05:41:21;;;;;;;1.50;0.47;;;11.20;99.90;;;;;;5055795;28;20025;-81
2021/05/23 05:43:48;;;;;;;1.80;0.68;;;11.10;99.90;;;;;;5037605;28;20052;-81
2021/05/23 05:46:14;;;;;;;1.35;0.57;;;11.20;99.90;;;;;;5037347;28;20041;-81
2021/05/23 05:48:39;;;;;;;1.35;0.68;;;11.40;99.90;;;;;;5037438;28;20126;-81
2021/05/23 05:51:06;;;;;;;2.03;0.82;;;11.50;99.90;;;;;;5055237;28;20103;-81
2021/05/23 05:53:31;;;;;;;2.67;0.70;;;11.30;99.90;;;;;;5037311;28;20443;-81
2021/05/23 05:55:57;;;;;;;1.80;0.60;;;11.20;99.90;;;;;;5055489;28;20025;-81
2021/05/23 05:58:23;;;;;;;3.05;0.50;;;11.20;99.90;;;;;;5055152;28;20028;-81
2021/05/23 06:00:49;;;;;;;2.58;0.50;;;11.10;99.90;;;;;;5055137;28;20097;-81
2021/05/23 06:03:14;;;;;;;1.65;0.55;;;10.90;99.90;;;;;;5037779;28;20021;-80
2021/05/23 06:05:40;;;;;;;1.30;0.40;;;10.90;99.90;;;;;;5055051;28;20036;-81
2021/05/23 06:08:06;;;;;;;2.40;0.75;;;10.90;99.90;;;;;;5037092;28;20021;-81
2021/05/23 06:10:32;;;;;;;1.30;0.50;;;10.90;99.90;;;;;;5037089;28;20017;-81
2021/05/23 06:12:58;;;;;;;3.63;0.70;;;11.10;99.90;;;;;;5054955;28;20044;-81
2021/05/23 06:15:24;;;;;;;1.58;0.40;;;10.90;99.90;;;;;;5055039;28;20023;-81
2021/05/23 06:17:50;;;;;;;2.30;0.57;;;11.10;99.90;;;;;;5037203;28;20029;-81
2021/05/23 06:20:16;;;;;;;1.77;0.43;;;11.00;99.90;;;;;;5055002;28;20021;-81
2021/05/23 06:22:41;;;;;;;1.42;0.55;;;10.90;99.90;;;;;;5036902;28;20021;-81
2021/05/23 06:25:08;;;;;;;3.13;0.63;;;10.90;99.90;;;;;;5036770;28;20484;-81
2021/05/23 06:27:34;;;;;;;1.95;0.60;;;10.80;99.90;;;;;;5054626;28;20083;-81
2021/05/23 06:30:00;;;;;;;2.38;0.80;;;10.70;99.90;;;;;;5054563;28;20039;-81
2021/05/23 06:32:26;;;;;;;2.70;0.77;;;10.90;99.90;;;;;;5036658;28;20029;-81
2021/05/23 06:34:52;;;;;;;3.80;1.00;;;10.90;99.90;;;;;;5036536;28;20032;-81
2021/05/23 06:37:18;;;;;;;2.20;0.63;;;11.00;99.90;;;;;;5054435;28;20037;-81
2021/05/23 06:39:44;;;;;;;2.13;0.60;;;11.20;99.90;;;;;;5036489;28;20021;-81
2021/05/23 06:42:10;;;;;;;2.15;0.60;;;11.40;99.90;;;;;;5054391;28;20082;-81
2021/05/23 06:44:36;;;;;;;1.65;0.50;;;11.60;99.90;;;;;;5054283;28;20152;-81
2021/05/23 06:47:02;;;;;;;2.88;0.60;;;11.60;99.90;;;;;;5036272;28;20072;-81
2021/05/23 06:49:28;;;;;;;1.27;0.50;;;11.50;99.90;;;;;;5036357;28;20036;-81
2021/05/23 06:51:54;;;;;;;3.10;0.55;;;11.50;99.90;;;;;;5035955;28;20455;-81
2021/05/23 06:54:19;;;;;;;2.78;0.52;;;11.60;99.90;;;;;;5036100;28;20392;-81
2021/05/23 06:56:45;;;;;;;2.75;0.63;;;11.50;99.90;;;;;;5036214;28;20104;-81
2021/05/23 06:59:11;;;;;;;1.50;0.52;;;11.10;99.90;;;;;;5054096;28;20020;-80
2021/05/23 07:01:37;;;;;;;1.42;0.50;;;11.50;99.90;;;;;;5036158;28;20116;-81
2021/05/23 07:04:03;;;;;;;1.42;0.45;;;11.50;99.90;;;;;;5036057;28;20029;-82
2021/05/23 07:06:29;;;;;;;4.05;0.50;;;11.50;99.90;;;;;;5053914;28;20388;-80
2021/05/23 07:08:55;;;;;;;1.48;0.40;;;11.60;99.90;;;;;;5036046;28;20024;-82
2021/05/23 07:11:21;;;;;;;4.68;0.68;;;11.40;99.90;;;;;;5036176;28;20136;-80
2021/05/23 07:13:46;;;;;;;4.32;0.80;;;11.10;99.90;;;;;;5035906;28;20025;-80
2021/05/23 07:16:12;;;;;;;3.67;0.77;;;11.00;99.90;;;;;;5035795;28;20051;-81
2021/05/23 07:18:38;;;;;;;5.13;0.77;;;11.10;99.90;;;;;;5035756;28;20438;-81
2021/05/23 07:21:04;;;;;;;0.90;0.55;;;11.10;99.90;;;;;;5035797;28;20115;-81
2021/05/23 07:23:30;;;;;;;3.45;0.63;;;11.00;99.90;;;;;;5035651;28;20029;-82
2021/05/23 07:25:57;;;;;;;1.95;0.70;;;10.90;99.90;;;;;;5053580;28;20036;-82
2021/05/23 07:28:23;;;;;;;2.10;0.68;;;10.90;99.90;;;;;;5053371;28;20060;-82
2021/05/23 07:30:49;;;;;;;1.67;0.70;;;11.00;99.90;;;;;;5053286;28;20063;-82
2021/05/23 07:33:15;;;;;;;0.65;0.60;;;11.10;99.90;;;;;;5035361;28;20025;-82
2021/05/23 07:35:42;;;;;;;1.42;0.60;;;11.10;99.90;;;;;;5035391;28;20027;-81
2021/05/23 07:38:08;;;;;;;4.40;3.38;;;11.00;99.90;;;;;;5053624;28;20104;-81
2021/05/23 07:40:34;;;;;;;2.53;1.02;;;10.90;99.90;;;;;;5053371;28;20091;-82
2021/05/23 07:43:00;;;;;;;1.42;0.60;;;10.90;99.90;;;;;;5035403;28;20476;-82
2021/05/23 07:45:26;;;;;;;2.35;0.45;;;11.00;99.90;;;;;;5053269;28;20056;-82
2021/05/23 07:47:52;;;;;;;1.20;0.60;;;11.30;99.90;;;;;;5035297;28;20519;-81
2021/05/23 07:50:17;;;;;;;2.40;0.55;;;11.60;99.90;;;;;;5053267;28;20052;-82
2021/05/23 07:52:43;;;;;;;1.88;1.20;;;11.70;99.90;;;;;;5035573;28;20383;-82
2021/05/23 07:55:09;;;;;;;1.10;0.50;;;11.80;99.90;;;;;;5035244;28;20021;-81
2021/05/23 07:57:35;;;;;;;2.00;0.93;;;12.00;99.90;;;;;;5052947;28;20017;-81
2021/05/23 08:00:03;;;;;;;2.33;0.73;;;12.00;99.90;;;;;;5053376;28;20064;-81
2021/05/23 08:02:28;;;;;;;2.13;0.80;;;12.00;99.90;;;;;;5038325;28;20021;-81
2021/05/23 08:04:54;;;;;;;2.00;0.80;;;12.00;99.90;;;;;;5041833;28;20498;-81
2021/05/23 08:07:20;;;;;;;2.13;0.50;;;12.10;99.90;;;;;;5041873;28;20025;-83
2021/05/23 08:09:46;;;;;;;3.97;1.27;;;12.20;99.90;;;;;;5059614;28;20024;-81
2021/05/23 08:12:11;;;;;;;3.42;0.70;;;12.30;99.90;;;;;;5041769;28;20601;-82
2021/05/23 08:14:37;;;;;;;3.38;0.75;;;12.50;99.90;;;;;;5041738;28;20460;-81
2021/05/23 08:17:03;;;;;;;2.70;0.80;;;12.40;99.90;;;;;;5041764;28;20025;-82
2021/05/23 08:19:28;;;;;;;4.70;0.73;;;12.20;99.90;;;;;;5041775;28;20134;-83
2021/05/23 08:21:55;;;;;;;3.42;1.00;;;12.00;99.90;;;;;;5041620;28;20021;-81
2021/05/23 08:24:20;;;;;;;2.85;0.65;;;12.20;99.90;;;;;;5059538;28;20025;-82
2021/05/23 08:26:46;;;;;;;4.43;1.33;;;12.60;99.90;;;;;;5041598;28;20484;-81
2021/05/23 08:29:12;;;;;;;3.50;0.80;;;12.90;99.90;;;;;;5041901;28;20140;-81
2021/05/23 08:31:39;;;;;;;2.85;0.70;;;12.90;99.90;;;;;;5059555;28;20029;-81
2021/05/23 08:34:04;;;;;;;3.70;0.63;;;12.80;99.90;;;;;;5041505;28;20025;-81
2021/05/23 08:36:30;;;;;;;4.53;0.80;;;12.60;99.90;;;;;;5059464;28;20036;-81
2021/05/23 08:38:56;;;;;;;5.13;0.88;;;12.60;99.90;;;;;;5059721;28;20021;-80
2021/05/23 08:41:22;;;;;;;3.03;0.80;;;12.50;99.90;;;;;;5059449;28;20056;-82
2021/05/23 08:43:50;;;;;;;5.35;0.75;;;12.80;99.90;;;;;;5059273;28;20063;-81
2021/05/23 08:46:16;;;;;;;5.03;0.70;;;13.20;99.90;;;;;;5041366;28;20124;-82
2021/05/23 08:48:42;;;;;;;4.40;0.77;;;13.40;99.90;;;;;;5041689;28;20480;-82
2021/05/23 08:51:09;;;;;;;3.05;1.23;;;13.30;99.90;;;;;;5041166;28;20059;-82
2021/05/23 08:53:35;;;;;;;2.80;0.82;;;13.30;99.90;;;;;;5041311;28;20032;-82
2021/05/23 08:56:01;;;;;;;5.60;1.50;;;13.40;99.90;;;;;;5041668;28;20033;-82
2021/05/23 08:58:27;;;;;;;3.13;1.10;;;13.40;99.90;;;;;;5041256;28;20384;-83
2021/05/23 09:00:55;;;;;;;3.78;1.25;;;13.40;99.90;;;;;;5041233;28;20068;-82
2021/05/23 09:03:21;;;;;;;7.30;1.77;;;13.20;99.90;;;;;;5041373;28;20025;-83
2021/05/23 09:05:49;;;;;;;4.18;1.25;;;13.30;99.90;;;;;;5059283;28;20021;-83
2021/05/23 09:08:19;;;;;;;7.65;2.25;;;13.30;99.90;;;;;;5041325;28;20017;-82
2021/05/23 09:10:50;;;;;;;3.60;1.00;;;13.30;99.90;;;;;;5059762;28;20131;-82
2021/05/23 09:13:34;;;;;;;5.63;1.20;;;12.90;99.90;;;;;;5040481;28;20021;-81
2021/05/23 09:16:09;;;;;;;2.35;1.00;;;12.00;99.90;;;;;;5038038;28;20021;-82
2021/05/23 09:18:55;;;;;;;4.25;1.02;;;11.50;99.90;;;;;;5038076;28;20032;-82
2021/05/23 09:21:23;;;;;;;5.15;0.82;;;11.20;99.90;;;;;;5055920;28;20392;-82
2021/05/23 09:23:54;;;;;;;2.47;1.50;;;11.30;99.90;;;;;;5037986;28;20033;-82
2021/05/23 09:26:38;;;;;;;4.63;1.20;;;11.60;99.90;;;;;;5055824;28;20025;-82
2021/05/23 09:29:15;;;;;;;5.10;3.85;;;11.80;99.90;;;;;;5037868;28;20542;-82
2021/05/23 09:31:47;;;;;;;2.03;0.50;;;12.20;99.90;;;;;;5037831;28;20032;-82
2021/05/23 09:34:23;;;;;;;6.45;0.98;;;12.30;99.90;;;;;;5037742;28;20056;-81
2021/05/23 09:36:50;;;;;;;8.85;1.35;;;12.60;99.90;;;;;;5037737;28;20023;-82
2021/05/23 09:39:16;;;;;;;7.72;0.90;;;13.00;99.90;;;;;;5037600;28;20451;-81
2021/05/23 09:41:45;;;;;;;5.60;0.90;;;13.10;99.90;;;;;;5037657;28;20021;-82
2021/05/23 09:44:25;;;;;;;4.05;0.80;;;13.10;99.90;;;;;;5037646;28;20399;-81
2021/05/23 09:47:03;;;;;;;4.43;0.80;;;13.20;99.90;;;;;;5055512;28;20021;-81
2021/05/23 09:49:40;;;;;;;1.90;0.60;;;13.40;99.90;;;;;;5037587;28;20033;-83
2021/05/23 09:52:11;;;;;;;3.90;0.80;;;13.60;99.90;;;;;;5055294;28;20102;-82
2021/05/23 09:54:51;;;;;;;4.55;0.80;;;13.40;99.90;;;;;;5037550;28;20108;-81
2021/05/23 09:57:24;;;;;;;2.58;0.77;;;13.80;99.90;;;;;;5055336;28;20100;-82
2021/05/23 10:00:00;;;;;;;4.65;0.70;;;13.90;99.90;;;;;;5037398;28;20427;-82
2021/05/23 10:02:26;;;;;;;1.42;0.52;;;14.00;99.90;;;;;;5055246;28;20083;-83
2021/05/23 10:05:06;;;;;;;2.85;0.85;;;14.00;99.90;;;;;;5055135;28;20033;-83
2021/05/23 10:07:34;;;;;;;2.03;0.50;;;14.10;99.90;;;;;;5037425;28;20459;-82
2021/05/23 10:10:02;;;;;;;2.65;0.50;;;14.40;99.90;;;;;;5037274;28;20025;-81
2021/05/23 10:12:28;;;;;;;4.80;0.63;;;14.70;99.90;;;;;;5037092;28;20021;-82
2021/05/23 10:14:54;;;;;;;1.98;0.47;;;15.10;99.90;;;;;;5055060;28;20024;-82
2021/05/23 10:17:21;;;;;;;3.50;0.70;;;15.70;99.90;;;;;;5037173;28;20021;-82
2021/05/23 10:19:48;;;;;;;1.98;0.70;;;15.90;99.90;;;;;;5037142;28;20060;-82
2021/05/23 10:22:14;;;;;;;3.58;0.55;;;15.40;99.90;;;;;;5036958;28;20476;-81
2021/05/23 10:24:50;;;;;;;2.75;0.60;;;15.30;99.90;;;;;;5036502;28;20021;-81
2021/05/23 10:27:24;;;;;;;3.53;0.90;;;15.30;99.90;;;;;;5054715;28;20025;-82
2021/05/23 10:29:55;;;;;;;1.93;0.53;;;15.40;99.90;;;;;;5054695;28;20538;-81
2021/05/23 10:32:27;;;;;;;5.15;0.55;;;15.20;99.90;;;;;;5036798;28;20025;-80
2021/05/23 10:34:54;;;;;;;3.33;0.70;;;14.90;99.90;;;;;;5036592;28;20031;-81
2021/05/23 10:37:26;;;;;;;1.08;0.47;;;14.50;99.90;;;;;;5036597;28;20025;-81
2021/05/23 10:39:52;;;;;;;2.50;0.50;;;14.30;99.90;;;;;;5036607;28;20388;-82
2021/05/23 10:42:19;;;;;;;5.70;0.73;;;14.30;99.90;;;;;;5036585;28;20113;-80
2021/05/23 10:44:52;;;;;;;1.40;0.70;;;13.50;99.90;;;;;;5054417;28;20056;-83
2021/05/23 10:47:21;;;;;;;6.50;0.65;;;14.00;99.90;;;;;;5054282;28;20033;-80
2021/05/23 10:49:51;;;;;;;2.55;0.65;;;14.70;99.90;;;;;;5036574;28;20447;-79
2021/05/23 10:52:17;;;;;;;1.00;0.30;;;15.10;99.90;;;;;;5036496;28;20045;-81
2021/05/23 10:55:09;;;;;;;1.70;0.47;;;15.30;99.90;;;;;;5036312;28;20032;-83
2021/05/23 10:57:48;;;;;;;2.88;0.30;;;15.20;99.90;;;;;;5054133;28;20024;-83
2021/05/23 11:00:35;;;;;;;2.95;0.70;;;15.50;99.90;;;;;;5036287;28;20027;-82
2021/05/23 11:03:11;;;;;;;3.38;0.60;;;15.00;99.90;;;;;;5054051;28;20100;-81
2021/05/23 11:05:36;;;;;;;2.20;0.43;;;14.40;99.90;;;;;;5053986;28;20025;-83
2021/05/23 11:08:04;;;;;;;1.42;0.45;;;14.10;99.90;;;;;;5053960;28;20393;-82
2021/05/23 11:10:38;;;;;;;1.08;0.30;;;14.00;99.90;;;;;;5036293;28;20079;-81
2021/05/23 11:13:04;;;;;;;0.82;0.30;;;14.20;99.90;;;;;;5036066;28;20032;-82
2021/05/23 11:15:45;;;;;;;1.35;0.30;;;14.40;99.90;;;;;;5053603;28;20083;-80
2021/05/23 11:18:19;;;;;;;3.38;0.38;;;15.10;99.90;;;;;;5053696;28;20025;-80
2021/05/23 11:21:02;;;;;;;2.10;0.50;;;15.10;99.90;;;;;;5035875;28;20021;-80
2021/05/23 11:23:29;;;;;;;2.33;0.60;;;15.60;99.90;;;;;;5035729;28;20495;-79
2021/05/23 11:26:12;;;;;;;2.22;1.23;;;16.40;99.90;;;;;;5035727;28;20051;-80
2021/05/23 11:28:59;;;;;;;1.63;0.60;;;17.30;99.90;;;;;;5053372;28;20017;-79
2021/05/23 11:31:36;;;;;;;4.53;1.60;;;17.30;99.90;;;;;;5053496;28;20075;-79
2021/05/23 11:34:04;;;;;;;1.52;0.45;;;17.50;99.90;;;;;;5035789;28;20071;-81
2021/05/23 11:36:32;;;;;;;2.28;0.70;;;17.70;99.90;;;;;;5018461;28;20029;-82
2021/05/23 11:39:06;;;;;;;0.95;0.40;;;17.10;99.90;;;;;;5035372;28;20023;-81
2021/05/23 11:41:44;;;;;;;2.83;0.50;;;17.50;99.90;;;;;;5053382;28;20045;-80
2021/05/23 11:44:12;;;;;;;4.57;0.70;;;17.30;99.90;;;;;;5053354;28;20041;-82
2021/05/23 11:46:50;;;;;;;3.28;0.50;;;17.20;99.90;;;;;;5035347;28;20035;-82
2021/05/23 11:49:22;;;;;;;1.80;0.70;;;18.10;99.90;;;;;;5035444;28;20523;-79
2021/05/23 11:51:56;;;;;;;1.70;0.50;;;18.30;99.90;;;;;;5052860;28;20049;-80
2021/05/23 11:54:22;;;;;;;2.03;0.60;;;18.90;99.90;;;;;;5035350;28;20075;-79
2021/05/23 11:56:47;;;;;;;4.28;0.57;;;18.50;98.50;;;;;;5034932;28;20033;-82
2021/05/23 11:59:13;;;;;;;2.83;0.57;;;17.90;99.80;;;;;;5053071;28;20480;-81
2021/05/23 12:01:52;;;;;;;1.38;0.40;;;18.00;99.30;;;;;;5053447;28;20032;-82
2021/05/23 12:04:18;;;;;;;1.02;0.45;;;17.00;99.90;;;;;;5035317;28;20115;-81
2021/05/23 12:06:49;;;;;;;3.13;0.52;;;16.40;99.90;;;;;;5035259;28;20106;-83
2021/05/23 12:09:22;;;;;;;2.35;0.40;;;15.90;99.90;;;;;;5035164;28;20025;-83
2021/05/23 12:11:55;;;;;;;3.88;0.50;;;15.50;99.90;;;;;;5035160;28;20083;-81
2021/05/23 12:14:45;;;;;;;3.55;0.50;;;15.00;99.90;;;;;;5035163;28;20028;-82
2021/05/23 12:17:18;;;;;;;1.40;0.40;;;14.50;99.90;;;;;;5035289;28;20021;-80
2021/05/23 12:19:49;;;;;;;2.75;0.50;;;14.30;99.90;;;;;;5053046;28;20020;-80
2021/05/23 12:22:33;;;;;;;1.25;0.50;;;14.20;99.90;;;;;;5035134;28;20104;-80
2021/05/23 12:25:08;;;;;;;1.77;0.50;;;14.20;99.90;;;;;;5052980;28;20466;-81
2021/05/23 12:27:36;;;;;;;3.90;0.60;;;14.20;99.90;;;;;;5053191;28;20017;-82
2021/05/23 12:30:27;;;;;;;2.40;0.30;;;14.40;99.90;;;;;;5034974;28;20029;-80
2021/05/23 12:32:56;;;;;;;2.35;0.40;;;15.00;99.90;;;;;;5052792;28;20048;-80
2021/05/23 12:35:30;;;;;;;2.65;0.50;;;15.60;99.90;;;;;;5052726;28;20021;-82
2021/05/23 12:38:04;;;;;;;1.15;0.40;;;15.90;99.90;;;;;;5035048;28;20119;-81
2021/05/23 12:40:40;;;;;;;4.78;0.90;;;16.10;99.90;;;;;;5034997;28;20043;-80
2021/05/23 12:43:28;;;;;;;2.47;0.65;;;16.90;99.90;;;;;;5053031;28;20028;-80
2021/05/23 12:45:59;;;;;;;1.52;0.50;;;18.30;99.90;;;;;;5052621;28;20021;-80
2021/05/23 12:48:29;;;;;;;3.80;0.75;;;19.50;98.90;;;;;;5036015;28;20059;-80
2021/05/23 12:50:56;;;;;;;13.63;9.27;;;;;;;;;;5026827;28;20042;-82
2021/05/23 12:53:30;;;;;;;10.65;7.47;;;20.20;96.80;;;;;;5015426;28;20041;-81
2021/05/23 12:56:06;;;;;;;5.28;2.10;;;20.20;95.90;;;;;;5016507;28;20030;-82